sensor_id;sensor_type;location;lat;lon;timestamp;P1;durP1;ratioP1;P2;durP2;ratioP2
57085;SDS011;42964;42.910;23.792;2022-11-15T00:03:53;51.45;;;24.95;;
57085;SDS011;42964;42.910;23.792;2022-11-15T00:08:52;49.25;;;25.33;;
57085;SDS011;42964;42.910;23.792;2022-11-15T00:13:51;50.25;;;23.10;;
57085;SDS011;42964;42.910;23.792;2022-11-15T00:18:53;47.25;;;21.52;;
57085;SDS011;42964;42.910;23.792;2022-11-15T00:23:52;40.95;;;20.85;;
57085;SDS011;42964;42.910;23.792;2022-11-15T00:28:53;38.03;;;18.95;;
57085;SDS011;42964;42.910;23.792;2022-11-15T00:33:52;35.50;;;17.95;;
57085;SDS011;42964;42.910;23.792;2022-11-15T00:38:51;33.55;;;16.73;;
57085;SDS011;42964;42.910;23.792;2022-11-15T00:43:50;36.05;;;18.20;;
57085;SDS011;42964;42.910;23.792;2022-11-15T00:48:49;35.17;;;16.70;;
57085;SDS011;42964;42.910;23.792;2022-11-15T00:53:48;33.05;;;16.75;;
57085;SDS011;42964;42.910;23.792;2022-11-15T00:58:47;36.15;;;17.80;;
57085;SDS011;42964;42.910;23.792;2022-11-15T01:03:46;36.05;;;17.38;;
57085;SDS011;42964;42.910;23.792;2022-11-15T01:08:45;32.53;;;16.75;;
57085;SDS011;42964;42.910;23.792;2022-11-15T01:13:44;33.70;;;18.08;;
57085;SDS011;42964;42.910;23.792;2022-11-15T01:18:43;29.23;;;16.10;;
57085;SDS011;42964;42.910;23.792;2022-11-15T01:28:41;31.58;;;15.00;;
57085;SDS011;42964;42.910;23.792;2022-11-15T01:33:40;31.58;;;15.65;;
57085;SDS011;42964;42.910;23.792;2022-11-15T01:38:40;34.38;;;17.40;;
57085;SDS011;42964;42.910;23.792;2022-11-15T01:43:39;33.08;;;17.42;;
57085;SDS011;42964;42.910;23.792;2022-11-15T01:48:38;33.78;;;16.98;;
57085;SDS011;42964;42.910;23.792;2022-11-15T01:53:37;32.17;;;16.55;;
57085;SDS011;42964;42.910;23.792;2022-11-15T01:58:38;37.28;;;17.42;;
57085;SDS011;42964;42.910;23.792;2022-11-15T02:03:42;31.02;;;16.00;;
57085;SDS011;42964;42.910;23.792;2022-11-15T02:08:48;28.00;;;14.93;;
57085;SDS011;42964;42.910;23.792;2022-11-15T02:13:48;33.08;;;16.63;;
57085;SDS011;42964;42.910;23.792;2022-11-15T02:45:19;26.40;;;13.23;;
57085;SDS011;42964;42.910;23.792;2022-11-15T02:50:24;22.70;;;13.20;;
57085;SDS011;42964;42.910;23.792;2022-11-15T02:55:27;24.67;;;14.20;;
57085;SDS011;42964;42.910;23.792;2022-11-15T03:00:27;25.58;;;14.63;;
57085;SDS011;42964;42.910;23.792;2022-11-15T03:10:41;25.45;;;13.90;;
57085;SDS011;42964;42.910;23.792;2022-11-15T03:15:46;24.30;;;13.65;;
57085;SDS011;42964;42.910;23.792;2022-11-15T03:21:00;31.73;;;16.65;;
57085;SDS011;42964;42.910;23.792;2022-11-15T03:26:01;29.02;;;15.60;;
57085;SDS011;42964;42.910;23.792;2022-11-15T03:31:05;29.65;;;16.55;;
57085;SDS011;42964;42.910;23.792;2022-11-15T03:41:28;28.13;;;14.73;;
57085;SDS011;42964;42.910;23.792;2022-11-15T03:46:34;24.42;;;13.82;;
57085;SDS011;42964;42.910;23.792;2022-11-15T03:51:38;33.90;;;18.27;;
57085;SDS011;42964;42.910;23.792;2022-11-15T03:56:38;26.05;;;15.43;;
57085;SDS011;42964;42.910;23.792;2022-11-15T04:01:37;32.67;;;19.35;;
57085;SDS011;42964;42.910;23.792;2022-11-15T04:06:36;29.90;;;18.52;;
57085;SDS011;42964;42.910;23.792;2022-11-15T04:11:35;75.05;;;32.10;;
57085;SDS011;42964;42.910;23.792;2022-11-15T04:16:34;31.90;;;17.25;;
57085;SDS011;42964;42.910;23.792;2022-11-15T04:21:33;31.75;;;19.45;;
57085;SDS011;42964;42.910;23.792;2022-11-15T04:26:50;38.10;;;21.92;;
57085;SDS011;42964;42.910;23.792;2022-11-15T04:31:49;33.85;;;18.85;;
57085;SDS011;42964;42.910;23.792;2022-11-15T04:36:48;29.52;;;18.70;;
57085;SDS011;42964;42.910;23.792;2022-11-15T04:42:05;31.05;;;19.35;;
57085;SDS011;42964;42.910;23.792;2022-11-15T04:52:04;29.77;;;16.48;;
57085;SDS011;42964;42.910;23.792;2022-11-15T04:57:03;25.75;;;16.30;;
57085;SDS011;42964;42.910;23.792;2022-11-15T05:02:02;27.45;;;16.55;;
57085;SDS011;42964;42.910;23.792;2022-11-15T05:07:01;28.90;;;16.48;;
57085;SDS011;42964;42.910;23.792;2022-11-15T05:12:00;34.97;;;21.75;;
57085;SDS011;42964;42.910;23.792;2022-11-15T05:16:59;32.70;;;19.85;;
57085;SDS011;42964;42.910;23.792;2022-11-15T05:21:58;28.63;;;16.83;;
57085;SDS011;42964;42.910;23.792;2022-11-15T05:26:57;26.65;;;16.77;;
57085;SDS011;42964;42.910;23.792;2022-11-15T05:31:56;24.02;;;14.90;;
57085;SDS011;42964;42.910;23.792;2022-11-15T05:36:55;57.03;;;34.05;;
57085;SDS011;42964;42.910;23.792;2022-11-15T05:41:55;30.80;;;19.05;;
57085;SDS011;42964;42.910;23.792;2022-11-15T05:47:01;29.98;;;16.77;;
57085;SDS011;42964;42.910;23.792;2022-11-15T05:52:02;28.10;;;17.83;;
57085;SDS011;42964;42.910;23.792;2022-11-15T05:57:05;26.90;;;15.95;;
57085;SDS011;42964;42.910;23.792;2022-11-15T06:02:04;33.28;;;18.08;;
57085;SDS011;42964;42.910;23.792;2022-11-15T06:07:03;30.40;;;18.08;;
57085;SDS011;42964;42.910;23.792;2022-11-15T06:12:02;27.70;;;16.33;;
57085;SDS011;42964;42.910;23.792;2022-11-15T06:17:01;32.03;;;17.10;;
57085;SDS011;42964;42.910;23.792;2022-11-15T06:22:01;30.65;;;18.33;;
57085;SDS011;42964;42.910;23.792;2022-11-15T06:27:00;108.15;;;63.70;;
57085;SDS011;42964;42.910;23.792;2022-11-15T06:31:59;29.70;;;19.35;;
57085;SDS011;42964;42.910;23.792;2022-11-15T06:36:58;61.47;;;40.95;;
57085;SDS011;42964;42.910;23.792;2022-11-15T06:41:57;64.68;;;38.47;;
57085;SDS011;42964;42.910;23.792;2022-11-15T06:46:56;29.40;;;16.02;;
57085;SDS011;42964;42.910;23.792;2022-11-15T06:51:55;36.53;;;22.02;;
57085;SDS011;42964;42.910;23.792;2022-11-15T06:56:54;39.40;;;25.58;;
57085;SDS011;42964;42.910;23.792;2022-11-15T07:01:53;32.83;;;19.90;;
57085;SDS011;42964;42.910;23.792;2022-11-15T07:06:52;31.23;;;18.15;;
57085;SDS011;42964;42.910;23.792;2022-11-15T07:11:50;35.92;;;18.60;;
57085;SDS011;42964;42.910;23.792;2022-11-15T07:16:49;37.55;;;22.65;;
57085;SDS011;42964;42.910;23.792;2022-11-15T07:21:48;39.15;;;22.70;;
57085;SDS011;42964;42.910;23.792;2022-11-15T07:26:47;39.28;;;20.48;;
57085;SDS011;42964;42.910;23.792;2022-11-15T07:31:46;42.20;;;25.25;;
57085;SDS011;42964;42.910;23.792;2022-11-15T07:36:45;34.92;;;21.13;;
57085;SDS011;42964;42.910;23.792;2022-11-15T07:41:44;36.60;;;20.73;;
57085;SDS011;42964;42.910;23.792;2022-11-15T07:46:44;32.67;;;19.33;;
57085;SDS011;42964;42.910;23.792;2022-11-15T07:51:43;32.35;;;18.48;;
57085;SDS011;42964;42.910;23.792;2022-11-15T07:56:42;39.58;;;22.42;;
57085;SDS011;42964;42.910;23.792;2022-11-15T08:01:41;28.63;;;15.98;;
57085;SDS011;42964;42.910;23.792;2022-11-15T08:06:40;32.17;;;17.33;;
57085;SDS011;42964;42.910;23.792;2022-11-15T08:11:39;31.52;;;17.92;;
57085;SDS011;42964;42.910;23.792;2022-11-15T08:16:38;32.22;;;17.00;;
57085;SDS011;42964;42.910;23.792;2022-11-15T08:21:37;27.77;;;16.33;;
57085;SDS011;42964;42.910;23.792;2022-11-15T08:26:36;28.17;;;16.13;;
57085;SDS011;42964;42.910;23.792;2022-11-15T08:31:36;24.77;;;14.55;;
57085;SDS011;42964;42.910;23.792;2022-11-15T08:36:35;24.25;;;14.80;;
57085;SDS011;42964;42.910;23.792;2022-11-15T08:41:35;25.38;;;15.25;;
57085;SDS011;42964;42.910;23.792;2022-11-15T08:46:35;26.02;;;15.68;;
57085;SDS011;42964;42.910;23.792;2022-11-15T08:51:35;27.50;;;17.80;;
57085;SDS011;42964;42.910;23.792;2022-11-15T08:56:33;27.88;;;18.02;;
57085;SDS011;42964;42.910;23.792;2022-11-15T09:01:32;29.70;;;18.33;;
57085;SDS011;42964;42.910;23.792;2022-11-15T09:06:31;32.42;;;19.85;;
57085;SDS011;42964;42.910;23.792;2022-11-15T09:11:30;33.22;;;20.17;;
57085;SDS011;42964;42.910;23.792;2022-11-15T09:16:30;30.45;;;19.05;;
57085;SDS011;42964;42.910;23.792;2022-11-15T09:21:29;33.63;;;19.40;;
57085;SDS011;42964;42.910;23.792;2022-11-15T09:26:29;32.70;;;19.70;;
57085;SDS011;42964;42.910;23.792;2022-11-15T09:31:28;35.33;;;21.27;;
57085;SDS011;42964;42.910;23.792;2022-11-15T09:36:28;37.70;;;22.85;;
57085;SDS011;42964;42.910;23.792;2022-11-15T09:51:43;41.03;;;25.58;;
57085;SDS011;42964;42.910;23.792;2022-11-15T09:56:46;37.97;;;24.52;;
57085;SDS011;42964;42.910;23.792;2022-11-15T10:07:31;32.75;;;21.35;;
57085;SDS011;42964;42.910;23.792;2022-11-15T10:12:25;42.22;;;25.65;;
57085;SDS011;42964;42.910;23.792;2022-11-15T10:17:30;41.00;;;26.08;;
57085;SDS011;42964;42.910;23.792;2022-11-15T10:22:52;27.98;;;18.40;;
57085;SDS011;42964;42.910;23.792;2022-11-15T10:27:58;33.40;;;22.10;;
57085;SDS011;42964;42.910;23.792;2022-11-15T10:33:01;32.53;;;22.95;;
57085;SDS011;42964;42.910;23.792;2022-11-15T10:38:11;29.25;;;18.58;;
57085;SDS011;42964;42.910;23.792;2022-11-15T10:53:15;33.17;;;20.85;;
57085;SDS011;42964;42.910;23.792;2022-11-15T10:58:20;31.00;;;20.52;;
57085;SDS011;42964;42.910;23.792;2022-11-15T11:03:36;33.45;;;21.48;;
57085;SDS011;42964;42.910;23.792;2022-11-15T11:08:36;38.40;;;25.45;;
57085;SDS011;42964;42.910;23.792;2022-11-15T11:13:37;35.72;;;23.17;;
57085;SDS011;42964;42.910;23.792;2022-11-15T11:24:27;40.17;;;25.20;;
57085;SDS011;42964;42.910;23.792;2022-11-15T11:29:38;36.47;;;24.52;;
57085;SDS011;42964;42.910;23.792;2022-11-15T11:40:29;32.33;;;22.60;;
57085;SDS011;42964;42.910;23.792;2022-11-15T11:46:21;33.47;;;22.37;;
57085;SDS011;42964;42.910;23.792;2022-11-15T11:50:50;36.27;;;23.63;;
57085;SDS011;42964;42.910;23.792;2022-11-15T11:55:53;30.95;;;22.00;;
57085;SDS011;42964;42.910;23.792;2022-11-15T12:01:11;31.38;;;21.15;;
57085;SDS011;42964;42.910;23.792;2022-11-15T12:11:38;35.13;;;23.13;;
57085;SDS011;42964;42.910;23.792;2022-11-15T12:16:46;110.85;;;64.32;;
57085;SDS011;42964;42.910;23.792;2022-11-15T12:21:47;43.10;;;29.38;;
57085;SDS011;42964;42.910;23.792;2022-11-15T12:32:24;82.25;;;51.75;;
57085;SDS011;42964;42.910;23.792;2022-11-15T12:37:50;106.78;;;69.18;;
57085;SDS011;42964;42.910;23.792;2022-11-15T12:53:34;37.75;;;25.67;;
57085;SDS011;42964;42.910;23.792;2022-11-15T13:19:35;28.88;;;18.30;;
57085;SDS011;42964;42.910;23.792;2022-11-15T13:29:36;28.50;;;18.70;;
57085;SDS011;42964;42.910;23.792;2022-11-15T13:34:35;42.97;;;29.50;;
57085;SDS011;42964;42.910;23.792;2022-11-15T13:39:36;133.98;;;46.83;;
57085;SDS011;42964;42.910;23.792;2022-11-15T13:44:36;32.90;;;23.40;;
57085;SDS011;42964;42.910;23.792;2022-11-15T13:49:35;32.78;;;22.55;;
57085;SDS011;42964;42.910;23.792;2022-11-15T13:59:59;29.08;;;19.70;;
57085;SDS011;42964;42.910;23.792;2022-11-15T14:05:16;26.63;;;18.00;;
57085;SDS011;42964;42.910;23.792;2022-11-15T14:10:38;30.70;;;20.73;;
57085;SDS011;42964;42.910;23.792;2022-11-15T14:15:37;27.25;;;18.30;;
57085;SDS011;42964;42.910;23.792;2022-11-15T14:20:38;29.33;;;20.27;;
57085;SDS011;42964;42.910;23.792;2022-11-15T14:25:37;29.45;;;20.05;;
57085;SDS011;42964;42.910;23.792;2022-11-15T14:30:38;29.33;;;20.50;;
57085;SDS011;42964;42.910;23.792;2022-11-15T14:35:38;30.23;;;19.40;;
57085;SDS011;42964;42.910;23.792;2022-11-15T14:45:36;35.03;;;23.33;;
57085;SDS011;42964;42.910;23.792;2022-11-15T14:50:35;57.22;;;33.72;;
57085;SDS011;42964;42.910;23.792;2022-11-15T14:55:35;52.70;;;32.22;;
57085;SDS011;42964;42.910;23.792;2022-11-15T15:00:35;77.82;;;45.25;;
57085;SDS011;42964;42.910;23.792;2022-11-15T15:05:36;59.50;;;37.53;;
57085;SDS011;42964;42.910;23.792;2022-11-15T15:10:38;41.90;;;26.80;;
57085;SDS011;42964;42.910;23.792;2022-11-15T15:15:39;51.88;;;31.55;;
57085;SDS011;42964;42.910;23.792;2022-11-15T15:20:39;42.75;;;26.70;;
57085;SDS011;42964;42.910;23.792;2022-11-15T15:25:39;51.45;;;33.65;;
57085;SDS011;42964;42.910;23.792;2022-11-15T15:30:40;75.47;;;46.53;;
57085;SDS011;42964;42.910;23.792;2022-11-15T15:35:40;62.00;;;37.33;;
57085;SDS011;42964;42.910;23.792;2022-11-15T15:40:39;49.95;;;30.20;;
57085;SDS011;42964;42.910;23.792;2022-11-15T15:45:38;60.45;;;34.58;;
57085;SDS011;42964;42.910;23.792;2022-11-15T15:50:39;41.28;;;26.33;;
57085;SDS011;42964;42.910;23.792;2022-11-15T15:55:38;44.65;;;27.25;;
57085;SDS011;42964;42.910;23.792;2022-11-15T16:00:37;43.13;;;28.42;;
57085;SDS011;42964;42.910;23.792;2022-11-15T16:05:37;43.88;;;26.77;;
57085;SDS011;42964;42.910;23.792;2022-11-15T16:10:36;47.38;;;27.90;;
57085;SDS011;42964;42.910;23.792;2022-11-15T16:15:35;56.03;;;32.70;;
57085;SDS011;42964;42.910;23.792;2022-11-15T16:25:34;53.70;;;30.40;;
57085;SDS011;42964;42.910;23.792;2022-11-15T16:30:39;44.45;;;25.67;;
57085;SDS011;42964;42.910;23.792;2022-11-15T16:35:38;55.72;;;30.70;;
57085;SDS011;42964;42.910;23.792;2022-11-15T16:40:36;67.65;;;40.20;;
57085;SDS011;42964;42.910;23.792;2022-11-15T16:45:36;52.40;;;32.97;;
57085;SDS011;42964;42.910;23.792;2022-11-15T16:50:35;51.20;;;29.83;;
57085;SDS011;42964;42.910;23.792;2022-11-15T16:55:40;67.50;;;42.05;;
57085;SDS011;42964;42.910;23.792;2022-11-15T17:00:39;44.38;;;28.77;;
57085;SDS011;42964;42.910;23.792;2022-11-15T17:05:38;42.13;;;27.48;;
57085;SDS011;42964;42.910;23.792;2022-11-15T17:10:40;40.22;;;25.45;;
57085;SDS011;42964;42.910;23.792;2022-11-15T17:15:39;49.03;;;29.73;;
57085;SDS011;42964;42.910;23.792;2022-11-15T17:20:39;51.08;;;31.98;;
57085;SDS011;42964;42.910;23.792;2022-11-15T17:25:38;46.47;;;29.52;;
57085;SDS011;42964;42.910;23.792;2022-11-15T17:30:39;52.28;;;32.20;;
57085;SDS011;42964;42.910;23.792;2022-11-15T17:35:39;56.72;;;32.42;;
57085;SDS011;42964;42.910;23.792;2022-11-15T17:40:38;56.08;;;33.45;;
57085;SDS011;42964;42.910;23.792;2022-11-15T17:45:40;56.63;;;34.65;;
57085;SDS011;42964;42.910;23.792;2022-11-15T17:50:39;49.60;;;29.02;;
57085;SDS011;42964;42.910;23.792;2022-11-15T17:55:38;59.45;;;34.63;;
57085;SDS011;42964;42.910;23.792;2022-11-15T18:00:37;52.53;;;30.27;;
57085;SDS011;42964;42.910;23.792;2022-11-15T18:05:36;50.67;;;29.58;;
57085;SDS011;42964;42.910;23.792;2022-11-15T18:10:35;61.65;;;32.25;;
57085;SDS011;42964;42.910;23.792;2022-11-15T18:15:34;58.78;;;31.80;;
57085;SDS011;42964;42.910;23.792;2022-11-15T18:20:33;59.85;;;34.13;;
57085;SDS011;42964;42.910;23.792;2022-11-15T18:25:32;53.47;;;30.90;;
57085;SDS011;42964;42.910;23.792;2022-11-15T18:30:31;57.28;;;33.53;;
57085;SDS011;42964;42.910;23.792;2022-11-15T18:35:30;49.55;;;28.63;;
57085;SDS011;42964;42.910;23.792;2022-11-15T18:40:29;52.58;;;29.83;;
57085;SDS011;42964;42.910;23.792;2022-11-15T18:45:28;53.28;;;28.77;;
57085;SDS011;42964;42.910;23.792;2022-11-15T18:50:27;61.30;;;38.40;;
57085;SDS011;42964;42.910;23.792;2022-11-15T18:55:26;56.72;;;32.15;;
57085;SDS011;42964;42.910;23.792;2022-11-15T19:00:25;61.47;;;35.25;;
57085;SDS011;42964;42.910;23.792;2022-11-15T19:05:24;60.00;;;33.78;;
57085;SDS011;42964;42.910;23.792;2022-11-15T19:10:23;59.00;;;32.25;;
57085;SDS011;42964;42.910;23.792;2022-11-15T19:15:22;64.70;;;33.90;;
57085;SDS011;42964;42.910;23.792;2022-11-15T19:20:21;73.63;;;40.35;;
57085;SDS011;42964;42.910;23.792;2022-11-15T19:25:19;63.55;;;34.92;;
57085;SDS011;42964;42.910;23.792;2022-11-15T19:30:20;67.75;;;37.47;;
57085;SDS011;42964;42.910;23.792;2022-11-15T19:35:19;69.10;;;37.85;;
57085;SDS011;42964;42.910;23.792;2022-11-15T19:40:18;80.05;;;44.72;;
57085;SDS011;42964;42.910;23.792;2022-11-15T19:45:17;103.40;;;58.03;;
57085;SDS011;42964;42.910;23.792;2022-11-15T19:50:16;78.95;;;42.65;;
57085;SDS011;42964;42.910;23.792;2022-11-15T20:00:14;59.42;;;33.70;;
57085;SDS011;42964;42.910;23.792;2022-11-15T20:05:14;57.08;;;30.38;;
57085;SDS011;42964;42.910;23.792;2022-11-15T20:10:13;52.00;;;28.23;;
57085;SDS011;42964;42.910;23.792;2022-11-15T20:20:11;52.85;;;26.58;;
57085;SDS011;42964;42.910;23.792;2022-11-15T20:25:10;51.50;;;28.27;;
57085;SDS011;42964;42.910;23.792;2022-11-15T20:30:09;55.72;;;28.00;;
57085;SDS011;42964;42.910;23.792;2022-11-15T20:40:07;51.40;;;25.60;;
57085;SDS011;42964;42.910;23.792;2022-11-15T20:45:06;49.58;;;26.67;;
57085;SDS011;42964;42.910;23.792;2022-11-15T20:50:06;58.58;;;29.25;;
57085;SDS011;42964;42.910;23.792;2022-11-15T20:55:05;60.60;;;30.55;;
57085;SDS011;42964;42.910;23.792;2022-11-15T21:00:05;81.13;;;39.22;;
57085;SDS011;42964;42.910;23.792;2022-11-15T21:05:05;76.53;;;37.17;;
57085;SDS011;42964;42.910;23.792;2022-11-15T21:10:04;116.40;;;50.30;;
57085;SDS011;42964;42.910;23.792;2022-11-15T21:15:22;71.82;;;33.55;;
57085;SDS011;42964;42.910;23.792;2022-11-15T21:20:21;69.93;;;34.60;;
57085;SDS011;42964;42.910;23.792;2022-11-15T21:25:20;79.63;;;37.63;;
57085;SDS011;42964;42.910;23.792;2022-11-15T21:30:19;78.05;;;36.67;;
57085;SDS011;42964;42.910;23.792;2022-11-15T21:35:18;78.32;;;35.55;;
57085;SDS011;42964;42.910;23.792;2022-11-15T21:40:17;78.03;;;35.85;;
57085;SDS011;42964;42.910;23.792;2022-11-15T21:45:16;65.78;;;30.80;;
57085;SDS011;42964;42.910;23.792;2022-11-15T21:50:15;84.07;;;38.28;;
57085;SDS011;42964;42.910;23.792;2022-11-15T21:55:14;70.85;;;33.40;;
57085;SDS011;42964;42.910;23.792;2022-11-15T22:00:13;78.78;;;36.22;;
57085;SDS011;42964;42.910;23.792;2022-11-15T22:05:31;76.18;;;34.42;;
57085;SDS011;42964;42.910;23.792;2022-11-15T22:10:30;75.82;;;36.33;;
57085;SDS011;42964;42.910;23.792;2022-11-15T22:15:29;79.90;;;35.92;;
57085;SDS011;42964;42.910;23.792;2022-11-15T22:20:28;115.40;;;37.47;;
57085;SDS011;42964;42.910;23.792;2022-11-15T22:25:30;82.82;;;35.03;;
57085;SDS011;42964;42.910;23.792;2022-11-15T22:30:29;89.13;;;38.30;;
57085;SDS011;42964;42.910;23.792;2022-11-15T22:35:28;78.72;;;36.33;;
57085;SDS011;42964;42.910;23.792;2022-11-15T22:40:27;98.85;;;44.28;;
57085;SDS011;42964;42.910;23.792;2022-11-15T22:45:26;85.60;;;35.58;;
57085;SDS011;42964;42.910;23.792;2022-11-15T22:50:25;96.00;;;38.85;;
57085;SDS011;42964;42.910;23.792;2022-11-15T22:55:24;114.30;;;38.35;;
57085;SDS011;42964;42.910;23.792;2022-11-15T23:00:23;132.52;;;36.25;;
57085;SDS011;42964;42.910;23.792;2022-11-15T23:05:22;74.10;;;32.70;;
57085;SDS011;42964;42.910;23.792;2022-11-15T23:10:21;81.65;;;34.28;;
57085;SDS011;42964;42.910;23.792;2022-11-15T23:15:38;81.40;;;34.42;;
57085;SDS011;42964;42.910;23.792;2022-11-15T23:20:56;82.28;;;33.83;;
57085;SDS011;42964;42.910;23.792;2022-11-15T23:25:58;141.95;;;36.25;;
57085;SDS011;42964;42.910;23.792;2022-11-15T23:31:01;165.65;;;38.78;;
57085;SDS011;42964;42.910;23.792;2022-11-15T23:36:22;91.68;;;39.47;;
57085;SDS011;42964;42.910;23.792;2022-11-15T23:41:22;209.93;;;43.88;;
57085;SDS011;42964;42.910;23.792;2022-11-15T23:46:21;124.53;;;38.30;;
57085;SDS011;42964;42.910;23.792;2022-11-15T23:51:20;128.50;;;40.05;;
57085;SDS011;42964;42.910;23.792;2022-11-15T23:56:20;104.40;;;35.40;;
